createdAt,value
2023-04-15T00:00:17.723Z,7.21
2023-04-15T00:02:48.474Z,7.21
2023-04-15T00:05:18.690Z,7.22
2023-04-15T00:07:48.422Z,7.20
2023-04-15T00:10:18.301Z,7.20
2023-04-15T00:12:47.999Z,7.20
2023-04-15T00:15:17.548Z,7.22
2023-04-15T00:17:45.000Z,7.22
2023-04-15T00:20:13.333Z,7.23
2023-04-15T00:22:42.042Z,7.23
2023-04-15T00:25:10.517Z,7.21
2023-04-15T00:27:38.820Z,7.20
2023-04-15T00:30:08.117Z,7.22
2023-04-15T00:32:36.820Z,7.24
2023-04-15T00:35:04.657Z,7.23
2023-04-15T00:37:32.412Z,7.23
2023-04-15T00:40:01.361Z,7.23
2023-04-15T00:42:29.458Z,7.21
2023-04-15T00:44:57.875Z,7.21
2023-04-15T00:47:29.796Z,7.22
2023-04-15T00:49:59.680Z,7.22
2023-04-15T00:52:29.451Z,7.20
2023-04-15T00:55:00.340Z,7.19
2023-04-15T00:57:31.208Z,7.20
2023-04-15T01:00:01.690Z,7.21
2023-04-15T01:02:32.759Z,7.19
2023-04-15T01:05:07.658Z,7.17
2023-04-15T01:07:37.527Z,7.19
2023-04-15T01:10:05.407Z,7.18
2023-04-15T01:12:35.924Z,7.18
2023-04-15T01:15:06.709Z,7.16
2023-04-15T01:17:37.490Z,7.18
2023-04-15T01:20:11.500Z,7.18
2023-04-15T01:22:41.744Z,7.18
2023-04-15T01:25:20.314Z,7.18
2023-04-15T01:27:50.084Z,7.18
2023-04-15T01:30:20.186Z,7.19
2023-04-15T01:32:50.029Z,7.18
2023-04-15T01:35:21.554Z,7.19
2023-04-15T01:37:51.680Z,7.20
2023-04-15T01:40:20.518Z,7.17
2023-04-15T01:42:48.044Z,7.17
2023-04-15T01:45:17.484Z,7.18
2023-04-15T01:47:45.428Z,7.18
2023-04-15T01:50:13.946Z,7.16
2023-04-15T01:52:41.781Z,7.17
2023-04-15T01:55:11.603Z,7.17
2023-04-15T01:57:38.807Z,7.16
2023-04-15T02:00:08.150Z,7.15
2023-04-15T02:02:36.095Z,7.15
2023-04-15T02:05:05.663Z,7.15
2023-04-15T02:07:35.652Z,7.14
2023-04-15T02:10:04.167Z,7.16
2023-04-15T02:12:32.160Z,7.15
2023-04-15T02:15:00.820Z,7.14
2023-04-15T02:17:28.981Z,7.14
2023-04-15T02:19:57.460Z,7.11
2023-04-15T02:22:25.800Z,7.06
2023-04-15T02:24:54.661Z,7.06
2023-04-15T02:27:22.734Z,7.04
2023-04-15T02:29:51.438Z,7.04
2023-04-15T02:32:20.247Z,7.02
2023-04-15T02:34:47.852Z,7.02
2023-04-15T02:37:17.052Z,7.02
2023-04-15T02:39:44.664Z,7.03
2023-04-15T02:42:17.132Z,7.04
2023-04-15T02:44:47.063Z,7.07
2023-04-15T02:47:16.874Z,7.05
2023-04-15T02:49:46.665Z,7.06
2023-04-15T02:52:16.883Z,7.08
2023-04-15T02:54:46.670Z,7.08
2023-04-15T02:57:16.505Z,7.11
2023-04-15T02:59:46.218Z,7.12
2023-04-15T03:02:16.160Z,7.13
2023-04-15T03:04:46.045Z,7.14
2023-04-15T03:07:15.879Z,7.18
2023-04-15T03:09:47.818Z,7.22
2023-04-15T03:12:17.565Z,7.23
2023-04-15T03:14:47.289Z,7.25
2023-04-15T03:17:17.159Z,7.25
2023-04-15T03:19:46.935Z,7.26
2023-04-15T03:22:16.648Z,7.27
2023-04-15T03:24:46.502Z,7.28
2023-04-15T03:27:16.244Z,7.27
2023-04-15T03:29:46.272Z,7.28
2023-04-15T03:32:16.784Z,7.30
2023-04-15T03:34:46.534Z,7.29
2023-04-15T03:37:16.480Z,7.29
2023-04-15T03:39:46.842Z,7.30
2023-04-15T03:42:16.643Z,7.34
2023-04-15T03:44:46.413Z,7.39
2023-04-15T03:47:16.461Z,7.38
2023-04-15T03:49:46.263Z,7.37
2023-04-15T03:52:16.328Z,7.38
2023-04-15T03:54:46.046Z,7.40
2023-04-15T03:57:16.242Z,7.41
2023-04-15T03:59:46.151Z,7.43
2023-04-15T04:02:16.460Z,7.48
2023-04-15T04:04:46.431Z,7.53
2023-04-15T04:07:17.807Z,7.54
2023-04-15T04:09:47.954Z,7.54
2023-04-15T04:12:17.816Z,7.53
2023-04-15T04:14:48.264Z,7.53
2023-04-15T04:17:18.141Z,7.55
2023-04-15T04:19:48.009Z,7.54
2023-04-15T04:22:17.870Z,7.54
2023-04-15T04:24:47.623Z,7.55
2023-04-15T04:27:17.493Z,7.55
2023-04-15T04:29:47.969Z,7.53
2023-04-15T04:32:17.764Z,7.55
2023-04-15T04:34:48.241Z,7.57
2023-04-15T04:37:16.260Z,7.58
2023-04-15T04:39:44.372Z,7.60
2023-04-15T04:42:17.656Z,7.62
2023-04-15T04:44:47.408Z,7.62
2023-04-15T04:47:17.191Z,7.64
2023-04-15T04:49:47.072Z,7.65
2023-04-15T04:52:17.273Z,7.66
2023-04-15T04:54:47.403Z,7.69
2023-04-15T04:57:17.192Z,7.70
2023-04-15T04:59:47.266Z,7.69
2023-04-15T05:02:17.300Z,7.70
2023-04-15T05:04:47.286Z,7.71
2023-04-15T05:07:17.004Z,7.73
2023-04-15T05:09:47.336Z,7.75
2023-04-15T05:12:18.251Z,7.76
2023-04-15T05:14:48.160Z,7.76
2023-04-15T05:17:17.931Z,7.77
2023-04-15T05:19:48.233Z,7.79
2023-04-15T05:22:17.948Z,7.80
2023-04-15T05:24:47.805Z,7.83
2023-04-15T05:27:19.136Z,7.85
2023-04-15T05:29:48.894Z,7.85
2023-04-15T05:32:18.901Z,7.87
2023-04-15T05:34:48.720Z,7.90
2023-04-15T05:37:20.967Z,7.95
2023-04-15T05:39:50.697Z,7.98
2023-04-15T05:42:20.920Z,8.00
2023-04-15T05:44:51.163Z,8.06
2023-04-15T05:47:21.259Z,8.11
2023-04-15T05:49:51.411Z,8.16
2023-04-15T05:52:21.266Z,8.25
2023-04-15T05:54:51.304Z,8.37
2023-04-15T05:57:21.364Z,8.34
2023-04-15T05:59:54.093Z,8.37
2023-04-15T06:02:22.870Z,8.42
2023-04-15T06:04:51.543Z,8.43
2023-04-15T06:07:19.483Z,8.47
2023-04-15T06:09:47.849Z,8.44
2023-04-15T06:12:17.068Z,8.49
2023-04-15T06:14:44.708Z,8.47
2023-04-15T06:17:14.954Z,8.52
2023-04-15T06:19:44.634Z,8.57
2023-04-15T06:22:13.132Z,8.63
2023-04-15T06:24:41.333Z,8.67
2023-04-15T06:27:09.665Z,8.73
2023-04-15T06:29:38.140Z,8.71
2023-04-15T06:32:07.285Z,8.70
2023-04-15T06:34:35.024Z,8.70
2023-04-15T06:37:05.121Z,8.76
2023-04-15T06:39:36.064Z,8.87
2023-04-15T06:42:11.019Z,9.00
2023-04-15T06:44:42.280Z,9.10
2023-04-15T06:47:14.640Z,9.12
2023-04-15T06:49:44.958Z,9.19
2023-04-15T06:52:16.625Z,9.18
2023-04-15T06:54:46.448Z,9.17
2023-04-15T06:57:16.329Z,9.27
2023-04-15T06:59:47.059Z,9.27
2023-04-15T07:02:17.010Z,9.29
2023-04-15T07:04:46.972Z,9.32
2023-04-15T07:07:17.647Z,9.34
2023-04-15T07:09:47.768Z,9.28
2023-04-15T07:12:17.966Z,9.29
2023-04-15T07:14:47.758Z,9.34
2023-04-15T07:17:17.811Z,9.19
2023-04-15T07:19:47.748Z,9.14
2023-04-15T07:22:17.831Z,9.21
2023-04-15T07:24:47.750Z,9.21
2023-04-15T07:27:18.086Z,9.16
2023-04-15T07:29:48.875Z,9.12
2023-04-15T07:32:19.547Z,9.12
2023-04-15T07:34:49.392Z,9.05
2023-04-15T07:37:19.874Z,9.05
2023-04-15T07:39:49.593Z,9.02
2023-04-15T07:42:19.643Z,9.01
2023-04-15T07:44:49.503Z,8.99
2023-04-15T07:47:19.542Z,9.01
2023-04-15T07:49:49.389Z,8.98
2023-04-15T07:52:19.554Z,9.04
2023-04-15T07:54:49.355Z,8.94
2023-04-15T07:57:19.668Z,8.87
2023-04-15T07:59:49.377Z,8.87
2023-04-15T08:02:19.445Z,8.96
2023-04-15T08:04:49.486Z,8.94
2023-04-15T08:07:19.810Z,8.93
2023-04-15T08:09:49.686Z,8.87
2023-04-15T08:12:18.129Z,8.80
2023-04-15T08:14:46.987Z,8.82
2023-04-15T08:17:14.903Z,8.82
2023-04-15T08:19:43.314Z,8.83
2023-04-15T08:22:17.977Z,8.78
2023-04-15T08:24:48.863Z,8.81
2023-04-15T08:27:18.934Z,8.79
2023-04-15T08:29:49.027Z,8.84
2023-04-15T08:32:19.373Z,8.88
2023-04-15T08:34:49.313Z,8.94
2023-04-15T08:37:19.280Z,8.90
2023-04-15T08:39:49.105Z,8.89
2023-04-15T08:42:31.510Z,8.83
2023-04-15T08:45:05.690Z,8.84
2023-04-15T08:47:41.856Z,8.88
2023-04-15T08:50:12.848Z,8.78
2023-04-15T08:52:42.985Z,8.82
2023-04-15T08:55:15.913Z,8.83
2023-04-15T08:57:45.729Z,8.81
2023-04-15T09:00:17.151Z,8.90
2023-04-15T09:02:47.575Z,8.92
2023-04-15T09:05:17.666Z,9.03
2023-04-15T09:07:47.520Z,9.14
2023-04-15T09:10:17.966Z,9.13
2023-04-15T09:12:46.017Z,9.11
2023-04-15T09:15:16.449Z,9.07
2023-04-15T09:17:46.686Z,9.09
2023-04-15T09:20:18.600Z,9.15
2023-04-15T09:22:50.528Z,9.13
2023-04-15T09:25:23.224Z,9.06
2023-04-15T09:28:00.557Z,9.07
2023-04-15T09:30:30.681Z,9.14
2023-04-15T09:33:02.938Z,9.18
2023-04-15T09:35:32.810Z,9.12
2023-04-15T09:38:10.318Z,9.02
2023-04-15T09:40:42.070Z,9.01
2023-04-15T09:43:13.679Z,9.02
2023-04-15T09:45:54.104Z,9.07
2023-04-15T09:48:31.129Z,9.04
2023-04-15T09:51:01.320Z,8.98
2023-04-15T09:53:35.998Z,8.95
2023-04-15T09:56:08.022Z,8.90
2023-04-15T09:58:38.838Z,8.84
2023-04-15T10:01:09.316Z,8.87
2023-04-15T10:03:42.793Z,8.82
2023-04-15T10:06:13.284Z,8.92
2023-04-15T10:08:43.583Z,8.92
2023-04-15T10:11:14.424Z,8.91
2023-04-15T10:13:46.145Z,8.90
2023-04-15T10:16:19.437Z,8.96
2023-04-15T10:19:00.914Z,8.92
2023-04-15T10:21:30.910Z,8.94
2023-04-15T10:24:03.723Z,9.00
2023-04-15T10:26:34.508Z,9.01
2023-04-15T10:29:05.528Z,8.98
2023-04-15T10:31:38.415Z,8.99
2023-04-15T10:34:09.663Z,8.99
2023-04-15T10:36:39.530Z,8.97
2023-04-15T10:39:34.474Z,8.96
2023-04-15T10:42:21.566Z,9.01
2023-04-15T10:44:57.035Z,8.97
2023-04-15T10:47:26.349Z,9.04
2023-04-15T10:50:01.720Z,9.03
2023-04-15T10:52:31.252Z,9.01
2023-04-15T10:55:15.843Z,9.03
2023-04-15T10:57:45.854Z,9.02
2023-04-15T11:00:18.079Z,9.10
2023-04-15T11:03:07.061Z,9.16
2023-04-15T11:05:42.915Z,9.16
2023-04-15T11:08:14.004Z,9.13
2023-04-15T11:10:43.560Z,9.16
2023-04-15T11:13:21.928Z,9.12
2023-04-15T11:15:55.367Z,9.08
2023-04-15T11:18:31.320Z,9.04
2023-04-15T11:21:04.641Z,9.06
2023-04-15T11:23:47.425Z,9.11
2023-04-15T11:26:15.789Z,9.11
2023-04-15T11:28:45.947Z,9.09
2023-04-15T11:31:19.253Z,9.16
2023-04-15T11:34:02.114Z,9.14
2023-04-15T11:36:32.490Z,9.06
2023-04-15T11:39:02.301Z,9.01
2023-04-15T11:41:32.112Z,8.99
2023-04-15T11:44:02.756Z,9.03
2023-04-15T11:46:32.558Z,9.07
2023-04-15T11:49:02.423Z,9.09
2023-04-15T11:51:34.910Z,9.07
2023-04-15T11:54:05.030Z,9.06
2023-04-15T11:56:35.480Z,9.12
2023-04-15T11:59:05.357Z,9.18
2023-04-15T12:01:44.208Z,9.20
2023-04-15T12:04:22.545Z,9.31
2023-04-15T12:06:55.088Z,9.32
2023-04-15T12:09:25.265Z,9.36
2023-04-15T12:11:58.519Z,9.34
2023-04-15T12:14:31.990Z,9.32
2023-04-15T12:17:05.635Z,9.35
2023-04-15T12:19:39.081Z,9.34
2023-04-15T12:22:12.601Z,9.42
2023-04-15T12:24:48.139Z,9.52
2023-04-15T12:27:18.046Z,9.53
2023-04-15T12:29:48.014Z,9.61
2023-04-15T12:32:21.023Z,9.65
2023-04-15T12:34:54.449Z,9.67
2023-04-15T12:37:24.495Z,9.61
2023-04-15T12:39:54.876Z,9.59
2023-04-15T12:42:25.203Z,9.59
2023-04-15T12:44:55.019Z,9.64
2023-04-15T12:47:24.837Z,9.67
2023-04-15T12:49:54.548Z,9.66
2023-04-15T12:52:25.104Z,9.65
2023-04-15T12:54:55.032Z,9.68
2023-04-15T12:57:24.864Z,9.58
2023-04-15T12:59:54.737Z,9.63
2023-04-15T13:02:25.862Z,9.64
2023-04-15T13:04:55.807Z,9.63
2023-04-15T13:07:25.626Z,9.63
2023-04-15T13:09:55.518Z,9.56
2023-04-15T13:12:25.642Z,9.62
2023-04-15T13:14:53.644Z,9.72
2023-04-15T13:17:23.507Z,9.75
2023-04-15T13:19:51.834Z,9.73
2023-04-15T13:22:20.456Z,9.68
2023-04-15T13:24:49.602Z,9.75
2023-04-15T13:27:17.548Z,9.74
2023-04-15T13:29:46.337Z,9.83
2023-04-15T13:32:14.456Z,9.89
2023-04-15T13:34:42.880Z,9.80
2023-04-15T13:37:11.462Z,9.81
2023-04-15T13:39:39.678Z,9.81
2023-04-15T13:42:12.672Z,9.89
2023-04-15T13:44:42.977Z,9.97
2023-04-15T13:47:14.755Z,9.97
2023-04-15T13:49:44.549Z,9.92
2023-04-15T13:52:14.453Z,9.86
2023-04-15T13:54:44.283Z,9.86
2023-04-15T13:57:14.393Z,9.90
2023-04-15T13:59:44.345Z,9.93
2023-04-15T14:02:14.241Z,9.95
2023-04-15T14:04:44.212Z,9.94
2023-04-15T14:07:14.154Z,9.84
2023-04-15T14:09:44.907Z,9.83
2023-04-15T14:12:17.802Z,9.87
2023-04-15T14:14:47.559Z,9.91
2023-04-15T14:17:17.502Z,9.94
2023-04-15T14:19:47.400Z,10.01
2023-04-15T14:22:18.914Z,10.06
2023-04-15T14:24:49.295Z,10.12
2023-04-15T14:27:19.609Z,10.22
2023-04-15T14:29:49.401Z,10.15
2023-04-15T14:32:19.313Z,10.18
2023-04-15T14:34:49.174Z,10.13
2023-04-15T14:37:19.402Z,10.21
2023-04-15T14:39:49.120Z,10.12
2023-04-15T14:42:18.917Z,10.08
2023-04-15T14:44:48.827Z,9.98
2023-04-15T14:47:18.639Z,9.96
2023-04-15T14:49:48.537Z,9.98
2023-04-15T14:52:18.390Z,9.92
2023-04-15T14:54:48.208Z,9.87
2023-04-15T14:57:18.034Z,9.82
2023-04-15T14:59:47.837Z,9.80
2023-04-15T15:02:36.636Z,9.82
2023-04-15T15:05:10.880Z,9.80
2023-04-15T15:07:40.881Z,9.75
2023-04-15T15:10:10.944Z,9.81
2023-04-15T15:12:40.660Z,9.81
2023-04-15T15:15:24.971Z,9.81
2023-04-15T15:17:55.717Z,9.81
2023-04-15T15:20:28.048Z,9.88
2023-04-15T15:22:57.849Z,9.92
2023-04-15T15:25:29.044Z,9.95
2023-04-15T15:27:58.869Z,9.91
2023-04-15T15:30:28.780Z,9.96
2023-04-15T15:32:58.701Z,9.98
2023-04-15T15:35:28.594Z,9.94
2023-04-15T15:38:01.529Z,9.89
2023-04-15T15:40:31.382Z,9.90
2023-04-15T15:43:01.174Z,9.92
2023-04-15T15:45:31.446Z,9.88
2023-04-15T15:48:02.357Z,9.82
2023-04-15T15:50:32.594Z,9.82
2023-04-15T15:53:02.385Z,9.85
2023-04-15T15:55:32.290Z,9.85
2023-04-15T15:58:00.600Z,9.85
2023-04-15T16:00:29.401Z,9.87
2023-04-15T16:05:28.845Z,9.84
2023-04-15T16:07:57.455Z,9.84
2023-04-15T16:10:25.993Z,9.83
2023-04-15T16:12:54.765Z,9.76
2023-04-15T16:15:25.346Z,9.73
2023-04-15T16:17:55.311Z,9.75
2023-04-15T16:20:25.289Z,9.76
2023-04-15T16:22:59.055Z,9.74
2023-04-15T16:25:28.996Z,9.75
2023-04-15T16:28:06.041Z,9.75
2023-04-15T16:30:41.316Z,9.68
2023-04-15T16:33:11.102Z,9.68
2023-04-15T16:35:40.966Z,9.68
2023-04-15T16:38:10.771Z,9.67
2023-04-15T16:40:40.543Z,9.67
2023-04-15T16:43:11.520Z,9.69
2023-04-15T16:45:41.639Z,9.67
2023-04-15T16:48:11.506Z,9.62
2023-04-15T16:50:41.277Z,9.60
2023-04-15T16:53:11.171Z,9.61
2023-04-15T16:55:41.172Z,9.59
2023-04-15T16:58:11.120Z,9.58
2023-04-15T17:00:40.915Z,9.60
2023-04-15T17:03:10.930Z,9.54
2023-04-15T17:05:42.358Z,9.55
2023-04-15T17:08:12.112Z,9.59
2023-04-15T17:10:42.004Z,9.62
2023-04-15T17:13:11.724Z,9.59
2023-04-15T17:15:41.598Z,9.58
2023-04-15T17:18:12.077Z,9.52
2023-04-15T17:20:41.956Z,9.54
2023-04-15T17:23:11.693Z,9.53
2023-04-15T17:25:41.459Z,9.53
2023-04-15T17:28:11.527Z,9.50
2023-04-15T17:30:41.871Z,9.50
2023-04-15T17:33:58.014Z,9.51
2023-04-15T17:35:58.494Z,9.50
2023-04-15T17:38:27.214Z,9.46
2023-04-15T17:40:55.387Z,9.46
2023-04-15T17:43:23.750Z,9.47
2023-04-15T17:45:52.261Z,9.43
2023-04-15T17:48:20.567Z,9.41
2023-04-15T17:50:51.178Z,9.39
2023-04-15T17:53:20.656Z,9.39
2023-04-15T17:55:50.375Z,9.39
2023-04-15T17:58:17.204Z,9.36
2023-04-15T18:00:47.161Z,9.35
2023-04-15T18:03:14.761Z,9.36
2023-04-15T18:05:42.842Z,9.34
2023-04-15T18:08:11.190Z,9.33
2023-04-15T18:10:39.891Z,9.31
2023-04-15T18:13:07.896Z,9.27
2023-04-15T18:15:36.422Z,9.26
2023-04-15T18:18:04.730Z,9.25
2023-04-15T18:20:33.534Z,9.23
2023-04-15T18:23:02.426Z,9.24
2023-04-15T18:25:33.894Z,9.23
2023-04-15T18:28:03.810Z,9.19
2023-04-15T18:30:33.548Z,9.19
2023-04-15T18:33:03.690Z,9.19
2023-04-15T18:35:35.225Z,9.17
2023-04-15T18:38:04.172Z,9.14
2023-04-15T18:40:36.284Z,9.14
2023-04-15T18:43:05.433Z,9.13
2023-04-15T18:45:36.396Z,9.14
2023-04-15T18:48:06.154Z,9.13
2023-04-15T18:50:36.005Z,9.09
2023-04-15T18:53:06.037Z,9.07
2023-04-15T18:55:35.914Z,9.08
2023-04-15T18:58:09.140Z,9.07
2023-04-15T19:00:40.673Z,9.06
2023-04-15T19:03:11.585Z,9.05
2023-04-15T19:05:40.935Z,9.05
2023-04-15T19:08:10.913Z,9.04
2023-04-15T19:10:40.976Z,9.06
2023-04-15T19:13:10.747Z,9.05
2023-04-15T19:15:40.751Z,9.03
2023-04-15T19:18:10.744Z,9.01
2023-04-15T19:20:41.067Z,9.00
2023-04-15T19:23:11.304Z,9.01
2023-04-15T19:25:39.304Z,9.03
2023-04-15T19:28:07.728Z,9.03
2023-04-15T19:30:36.591Z,8.99
2023-04-15T19:33:04.573Z,8.99
2023-04-15T19:35:33.749Z,8.99
2023-04-15T19:38:01.372Z,9.01
2023-04-15T19:40:29.820Z,9.00
2023-04-15T19:42:58.246Z,8.99
2023-04-15T19:45:26.778Z,8.98
2023-04-15T19:47:55.078Z,8.98
2023-04-15T19:50:24.629Z,9.00
2023-04-15T19:52:52.722Z,8.98
2023-04-15T19:55:20.400Z,8.97
2023-04-15T19:57:48.676Z,8.97
2023-04-15T20:00:17.156Z,8.98
2023-04-15T20:02:45.708Z,8.97
2023-04-15T20:05:14.029Z,8.96
2023-04-15T20:07:43.080Z,8.94
2023-04-15T20:10:13.250Z,8.95
2023-04-15T20:12:51.590Z,8.94
2023-04-15T20:15:23.964Z,8.92
2023-04-15T20:17:54.095Z,8.94
2023-04-15T20:20:24.127Z,8.93
2023-04-15T20:22:53.931Z,8.93
2023-04-15T20:25:23.885Z,8.90
2023-04-15T20:27:53.777Z,8.90
2023-04-15T20:30:21.053Z,8.89
2023-04-15T20:32:48.293Z,8.86
2023-04-15T20:35:19.786Z,8.85
2023-04-15T20:37:49.270Z,8.83
2023-04-15T20:40:18.964Z,8.83
2023-04-15T20:42:49.334Z,8.80
2023-04-15T20:45:18.918Z,8.80
2023-04-15T20:47:48.973Z,8.81
2023-04-15T20:50:18.818Z,8.79
2023-04-15T20:52:48.608Z,8.79
2023-04-15T20:55:18.557Z,8.76
2023-04-15T20:57:51.236Z,8.78
2023-04-15T21:00:18.580Z,8.78
2023-04-15T21:02:48.454Z,8.75
2023-04-15T21:05:18.403Z,8.72
2023-04-15T21:07:48.306Z,8.74
2023-04-15T21:10:18.183Z,8.74
2023-04-15T21:12:47.995Z,8.74
2023-04-15T21:15:17.815Z,8.75
2023-04-15T21:17:47.583Z,8.74
2023-04-15T21:20:17.663Z,8.74
2023-04-15T21:22:47.354Z,8.75
2023-04-15T21:25:17.131Z,8.74
2023-04-15T21:27:46.958Z,8.74
2023-04-15T21:30:16.481Z,8.72
2023-04-15T21:32:46.261Z,8.70
2023-04-15T21:35:16.385Z,8.69
2023-04-15T21:37:46.276Z,8.69
2023-04-15T21:40:16.295Z,8.69
2023-04-15T21:42:46.053Z,8.68
2023-04-15T21:45:16.308Z,8.69
2023-04-15T21:47:56.881Z,8.67
2023-04-15T21:50:37.000Z,8.66
2023-04-15T21:53:08.173Z,8.64
2023-04-15T21:55:36.016Z,8.66
2023-04-15T21:58:03.813Z,8.64
2023-04-15T22:00:32.263Z,8.64
2023-04-15T22:03:00.838Z,8.63
2023-04-15T22:05:29.039Z,8.64
2023-04-15T22:07:58.937Z,8.64
2023-04-15T22:10:26.628Z,8.63
2023-04-15T22:12:57.039Z,8.63
2023-04-15T22:15:27.975Z,8.63
2023-04-15T22:17:58.033Z,8.62
2023-04-15T22:20:28.035Z,8.61
2023-04-15T22:22:58.166Z,8.62
2023-04-15T22:25:27.956Z,8.59
2023-04-15T22:27:56.518Z,8.60
2023-04-15T22:30:25.609Z,8.61
2023-04-15T22:32:53.453Z,8.61
2023-04-15T22:35:21.911Z,8.59
2023-04-15T22:37:50.159Z,8.59
2023-04-15T22:40:18.608Z,8.60
2023-04-15T22:42:46.971Z,8.59
2023-04-15T22:45:15.457Z,8.61
2023-04-15T22:47:43.817Z,8.59
2023-04-15T22:50:12.846Z,8.60
2023-04-15T22:52:40.897Z,8.60
2023-04-15T22:55:09.352Z,8.61
2023-04-15T22:57:37.500Z,8.61
2023-04-15T23:00:05.792Z,8.61
2023-04-15T23:02:35.161Z,8.60
2023-04-15T23:05:11.817Z,8.60
2023-04-15T23:07:41.819Z,8.60
2023-04-15T23:10:11.929Z,8.60
2023-04-15T23:12:41.674Z,8.60
2023-04-15T23:15:12.053Z,8.60
2023-04-15T23:17:43.031Z,8.59
2023-04-15T23:20:13.124Z,8.60
2023-04-15T23:22:43.302Z,8.59
2023-04-15T23:25:13.120Z,8.59
2023-04-15T23:27:42.916Z,8.57
2023-04-15T23:30:12.843Z,8.58
2023-04-15T23:32:42.877Z,8.58
2023-04-15T23:35:12.804Z,8.58
2023-04-15T23:37:42.576Z,8.57
2023-04-15T23:40:13.661Z,8.58
2023-04-15T23:42:43.519Z,8.59
2023-04-15T23:45:13.627Z,8.58
2023-04-15T23:47:43.370Z,8.61
2023-04-15T23:50:13.730Z,8.60
2023-04-15T23:52:41.671Z,8.58
2023-04-15T23:55:10.603Z,8.56
2023-04-15T23:57:38.843Z,8.57
